createdAt,value
2019-03-08T00:02:18.718Z,9.90
2019-03-08T00:04:48.239Z,9.97
2019-03-08T00:07:18.021Z,9.89
2019-03-08T00:09:47.285Z,9.93
2019-03-08T00:12:16.698Z,9.99
2019-03-08T00:14:46.377Z,10.05
2019-03-08T00:17:15.676Z,10.02
2019-03-08T00:19:44.887Z,9.99
2019-03-08T00:22:14.576Z,10.02
2019-03-08T00:24:44.256Z,10.01
2019-03-08T00:27:13.532Z,10.03
2019-03-08T00:29:43.286Z,10.09
2019-03-08T00:32:12.500Z,10.16
2019-03-08T00:34:41.761Z,10.12
2019-03-08T00:37:11.504Z,10.10
2019-03-08T00:39:40.758Z,10.10
2019-03-08T00:42:10.016Z,10.03
2019-03-08T00:44:39.711Z,10.09
2019-03-08T00:47:08.973Z,10.06
2019-03-08T00:49:38.186Z,10.14
2019-03-08T00:52:08.032Z,10.09
2019-03-08T00:54:37.248Z,10.03
2019-03-08T00:57:06.514Z,10.12
2019-03-08T00:59:36.411Z,10.04
2019-03-08T01:02:05.639Z,10.05
2019-03-08T01:04:35.829Z,10.06
2019-03-08T01:07:05.806Z,10.02
2019-03-08T01:09:35.101Z,10.09
2019-03-08T01:12:07.819Z,9.96
2019-03-08T01:14:37.511Z,9.87
2019-03-08T01:17:06.766Z,9.88
2019-03-08T01:19:36.237Z,9.86
2019-03-08T01:22:10.196Z,9.79
2019-03-08T01:24:39.431Z,9.78
2019-03-08T01:27:08.648Z,9.79
2019-03-08T01:29:38.356Z,9.85
2019-03-08T01:32:07.759Z,9.85
2019-03-08T01:34:37.059Z,9.88
2019-03-08T01:37:06.736Z,9.86
2019-03-08T01:39:35.946Z,9.85
2019-03-08T01:42:08.030Z,9.89
2019-03-08T01:44:37.659Z,9.87
2019-03-08T01:47:07.014Z,9.85
2019-03-08T01:49:36.605Z,9.82
2019-03-08T01:52:08.788Z,9.81
2019-03-08T01:54:38.106Z,9.78
2019-03-08T01:57:07.363Z,9.75
2019-03-08T01:59:36.794Z,9.79
2019-03-08T02:02:06.529Z,9.82
2019-03-08T02:04:35.858Z,9.76
2019-03-08T02:07:06.054Z,9.80
2019-03-08T02:09:37.789Z,9.81
2019-03-08T02:12:07.680Z,9.75
2019-03-08T02:14:36.966Z,9.78
2019-03-08T02:17:06.502Z,9.74
2019-03-08T02:19:35.771Z,9.74
2019-03-08T02:22:06.352Z,9.75
2019-03-08T02:24:36.045Z,9.72
2019-03-08T02:27:06.073Z,9.72
2019-03-08T02:29:36.978Z,9.68
2019-03-08T02:32:06.730Z,9.71
2019-03-08T02:34:35.947Z,9.67
2019-03-08T02:37:05.986Z,9.65
2019-03-08T02:39:38.851Z,9.67
2019-03-08T02:42:08.894Z,9.60
2019-03-08T02:44:38.847Z,9.64
2019-03-08T02:47:08.512Z,9.62
2019-03-08T02:49:37.799Z,9.59
2019-03-08T02:52:07.471Z,9.57
2019-03-08T02:54:37.216Z,9.58
2019-03-08T02:57:06.588Z,9.57
2019-03-08T02:59:36.018Z,9.56
2019-03-08T03:02:06.560Z,9.54
2019-03-08T03:04:35.769Z,9.59
2019-03-08T03:07:05.192Z,9.63
2019-03-08T03:09:36.214Z,9.62
2019-03-08T03:12:08.479Z,9.51
2019-03-08T03:14:37.973Z,9.53
2019-03-08T03:17:07.217Z,9.50
2019-03-08T03:19:36.437Z,9.55
2019-03-08T03:22:07.291Z,9.51
2019-03-08T03:24:36.722Z,9.54
2019-03-08T03:27:06.092Z,9.57
2019-03-08T03:29:35.757Z,9.53
2019-03-08T03:32:06.755Z,9.46
2019-03-08T03:34:36.036Z,9.49
2019-03-08T03:37:05.336Z,9.55
2019-03-08T03:39:34.571Z,9.51
2019-03-08T03:42:05.049Z,9.44
2019-03-08T03:44:34.337Z,9.48
2019-03-08T03:47:04.239Z,9.47
2019-03-08T03:49:33.472Z,9.44
2019-03-08T03:52:04.864Z,9.37
2019-03-08T03:54:34.437Z,9.35
2019-03-08T03:57:03.998Z,9.38
2019-03-08T03:59:33.495Z,9.39
2019-03-08T04:02:06.453Z,9.31
2019-03-08T04:04:35.678Z,9.31
2019-03-08T04:07:05.041Z,9.26
2019-03-08T04:09:34.732Z,9.27
2019-03-08T04:12:09.081Z,9.29
2019-03-08T04:14:38.370Z,9.24
2019-03-08T04:17:07.983Z,9.22
2019-03-08T04:19:37.194Z,9.25
2019-03-08T04:22:09.339Z,9.16
2019-03-08T04:24:39.139Z,9.13
2019-03-08T04:27:08.364Z,9.23
2019-03-08T04:29:38.898Z,9.17
2019-03-08T04:32:08.452Z,9.15
2019-03-08T04:34:37.681Z,9.14
2019-03-08T04:37:07.225Z,9.12
2019-03-08T04:39:36.930Z,9.12
2019-03-08T04:42:06.201Z,9.09
2019-03-08T04:44:35.454Z,9.10
2019-03-08T04:47:05.192Z,9.15
2019-03-08T04:49:34.477Z,9.11
2019-03-08T04:52:04.795Z,9.17
2019-03-08T04:54:34.376Z,9.07
2019-03-08T04:57:03.673Z,9.10
2019-03-08T04:59:33.355Z,9.16
2019-03-08T05:02:06.012Z,9.09
2019-03-08T05:04:35.243Z,9.07
2019-03-08T05:07:04.547Z,9.11
2019-03-08T05:09:34.197Z,9.13
2019-03-08T05:12:06.272Z,9.10
2019-03-08T05:14:36.412Z,9.15
2019-03-08T05:17:05.659Z,9.24
2019-03-08T05:19:35.059Z,9.22
2019-03-08T05:22:07.668Z,9.18
2019-03-08T05:24:36.896Z,9.12
2019-03-08T05:27:06.129Z,9.21
2019-03-08T05:29:35.827Z,9.11
2019-03-08T05:32:09.356Z,9.17
2019-03-08T05:34:39.171Z,9.18
2019-03-08T05:37:09.145Z,9.17
2019-03-08T05:39:38.368Z,9.25
2019-03-08T05:42:08.028Z,9.11
2019-03-08T05:44:37.698Z,9.12
2019-03-08T05:47:06.971Z,9.04
2019-03-08T05:49:36.284Z,9.04
2019-03-08T05:52:08.899Z,8.98
2019-03-08T05:54:38.185Z,8.97
2019-03-08T05:57:07.421Z,8.95
2019-03-08T05:59:37.177Z,9.01
2019-03-08T06:02:09.235Z,8.98
2019-03-08T06:04:38.469Z,8.95
2019-03-08T06:07:08.233Z,8.95
2019-03-08T06:09:37.545Z,9.00
2019-03-08T06:12:06.819Z,8.97
2019-03-08T06:14:36.061Z,9.00
2019-03-08T06:17:05.563Z,8.99
2019-03-08T06:19:35.250Z,9.08
2019-03-08T06:22:07.468Z,9.18
2019-03-08T06:24:36.882Z,9.09
2019-03-08T06:27:06.859Z,9.00
2019-03-08T06:29:36.150Z,9.07
2019-03-08T06:32:06.084Z,9.13
2019-03-08T06:34:35.760Z,9.19
2019-03-08T06:37:05.035Z,9.20
2019-03-08T06:39:34.242Z,9.35
2019-03-08T06:42:06.361Z,9.31
2019-03-08T06:44:35.648Z,9.21
2019-03-08T06:47:04.919Z,9.21
2019-03-08T06:49:34.654Z,9.21
2019-03-08T06:52:04.665Z,9.21
2019-03-08T06:54:33.905Z,9.26
2019-03-08T06:57:03.630Z,9.27
2019-03-08T06:59:37.502Z,9.32
2019-03-08T07:02:06.798Z,9.37
2019-03-08T07:04:36.553Z,9.30
2019-03-08T07:07:05.828Z,9.38
2019-03-08T07:09:35.236Z,9.36
2019-03-08T07:12:06.148Z,9.37
2019-03-08T07:14:35.479Z,9.47
2019-03-08T07:17:04.700Z,9.57
2019-03-08T07:19:40.786Z,9.45
2019-03-08T07:22:32.843Z,9.49
2019-03-08T07:25:13.986Z,9.51
2019-03-08T07:28:20.139Z,9.69
2019-03-08T07:31:08.724Z,9.66
2019-03-08T07:33:56.682Z,9.54
2019-03-08T07:36:51.465Z,9.64
2019-03-08T07:39:35.487Z,9.74
2019-03-08T07:42:23.716Z,9.68
2019-03-08T07:45:10.376Z,9.80
2019-03-08T07:47:52.729Z,9.90
2019-03-08T07:50:40.942Z,10.19
2019-03-08T07:53:35.848Z,10.04
2019-03-08T07:56:27.196Z,10.10
2019-03-08T07:59:08.321Z,10.15
2019-03-08T08:01:49.885Z,10.13
2019-03-08T08:04:37.271Z,10.18
2019-03-08T08:07:19.159Z,10.28
2019-03-08T08:09:59.402Z,10.08
2019-03-08T08:12:42.040Z,10.04
2019-03-08T08:15:45.623Z,10.13
2019-03-08T08:18:39.306Z,10.12
2019-03-08T08:21:17.362Z,10.15
2019-03-08T08:24:03.497Z,10.15
2019-03-08T08:26:51.652Z,10.12
2019-03-08T08:29:46.050Z,10.16
2019-03-08T08:32:49.501Z,10.08
2019-03-08T08:35:43.441Z,10.10
2019-03-08T08:38:23.863Z,10.10
2019-03-08T08:41:04.108Z,10.18
2019-03-08T08:43:49.993Z,10.29
2019-03-08T08:46:38.257Z,10.45
2019-03-08T08:49:36.176Z,10.50
2019-03-08T08:52:32.460Z,10.32
2019-03-08T08:55:23.923Z,10.33
2019-03-08T08:58:27.174Z,10.38
2019-03-08T09:01:09.748Z,10.42
2019-03-08T09:04:07.007Z,10.37
2019-03-08T09:06:54.110Z,10.32
2019-03-08T09:09:30.417Z,10.27
2019-03-08T09:12:05.996Z,10.34
2019-03-08T09:14:47.969Z,10.28
2019-03-08T09:17:26.510Z,10.33
2019-03-08T09:20:17.801Z,10.44
2019-03-08T09:23:13.196Z,10.35
2019-03-08T09:25:54.371Z,10.42
2019-03-08T09:28:41.227Z,10.35
2019-03-08T09:31:38.461Z,10.38
2019-03-08T09:34:32.719Z,10.41
2019-03-08T09:37:23.757Z,10.40
2019-03-08T09:40:30.585Z,10.52
2019-03-08T09:46:03.745Z,10.56
2019-03-08T09:48:50.315Z,10.52
2019-03-08T09:51:47.868Z,10.50
2019-03-08T09:54:27.274Z,10.59
2019-03-08T09:57:21.855Z,10.63
2019-03-08T10:00:12.864Z,10.60
2019-03-08T10:03:10.432Z,10.69
2019-03-08T10:06:06.776Z,10.66
2019-03-08T10:08:51.085Z,10.63
2019-03-08T10:11:39.720Z,10.66
2019-03-08T10:14:30.716Z,10.58
2019-03-08T10:17:05.748Z,10.44
2019-03-08T10:19:45.994Z,10.64
2019-03-08T10:22:34.050Z,10.42
2019-03-08T10:25:23.522Z,10.34
2019-03-08T10:28:16.046Z,10.28
2019-03-08T10:31:08.335Z,10.26
2019-03-08T10:34:05.619Z,10.21
2019-03-08T10:36:52.494Z,10.24
2019-03-08T10:39:31.497Z,10.20
2019-03-08T10:42:12.398Z,10.02
2019-03-08T10:44:52.224Z,10.08
2019-03-08T10:47:40.507Z,10.05
2019-03-08T10:50:41.743Z,9.94
2019-03-08T10:53:31.989Z,9.91
2019-03-08T10:56:30.088Z,9.81
2019-03-08T10:59:11.803Z,9.82
2019-03-08T11:01:59.122Z,9.82
2019-03-08T11:04:45.803Z,9.94
2019-03-08T11:07:23.829Z,10.11
2019-03-08T11:10:30.380Z,10.06
2019-03-08T11:13:17.345Z,10.12
2019-03-08T11:16:06.671Z,10.19
2019-03-08T11:19:08.519Z,10.04
2019-03-08T11:22:03.145Z,10.15
2019-03-08T11:24:52.751Z,10.28
2019-03-08T11:27:40.486Z,10.26
2019-03-08T11:30:22.497Z,10.29
2019-03-08T11:33:09.406Z,10.48
2019-03-08T11:38:31.033Z,10.70
2019-03-08T11:41:18.268Z,10.50
2019-03-08T11:43:56.342Z,10.53
2019-03-08T11:46:47.853Z,10.51
2019-03-08T11:49:27.643Z,10.42
2019-03-08T11:52:13.688Z,10.46
2019-03-08T11:55:20.251Z,10.58
2019-03-08T11:58:06.970Z,10.67
2019-03-08T12:00:53.806Z,10.68
2019-03-08T12:03:45.263Z,11.05
2019-03-08T12:06:39.713Z,11.12
2019-03-08T12:09:35.277Z,11.16
2019-03-08T12:12:22.907Z,10.98
2019-03-08T12:15:14.600Z,10.98
2019-03-08T12:18:08.641Z,11.30
2019-03-08T12:20:44.326Z,11.67
2019-03-08T12:23:24.470Z,11.60
2019-03-08T12:26:11.913Z,11.93
2019-03-08T12:29:09.339Z,12.10
2019-03-08T12:31:45.349Z,12.09
2019-03-08T12:34:31.951Z,12.21
2019-03-08T12:37:09.908Z,12.17
2019-03-08T12:40:01.543Z,12.51
2019-03-08T12:42:48.201Z,12.73
2019-03-08T12:45:35.989Z,12.36
2019-03-08T12:48:26.509Z,12.07
2019-03-08T12:51:13.064Z,12.12
2019-03-08T12:53:59.967Z,12.15
2019-03-08T12:56:55.399Z,12.05
2019-03-08T12:59:50.081Z,12.03
2019-03-08T13:02:47.695Z,12.16
2019-03-08T13:05:34.373Z,12.03
2019-03-08T13:08:36.716Z,11.67
2019-03-08T13:11:06.094Z,11.70
2019-03-08T13:13:35.858Z,11.71
2019-03-08T13:16:09.024Z,11.73
2019-03-08T13:18:39.050Z,11.76
2019-03-08T13:21:08.677Z,11.87
2019-03-08T13:23:38.313Z,11.85
2019-03-08T13:26:08.525Z,11.89
2019-03-08T13:28:37.855Z,11.85
2019-03-08T13:31:07.334Z,12.14
2019-03-08T13:33:37.144Z,12.41
2019-03-08T13:36:06.462Z,12.40
2019-03-08T13:38:35.846Z,12.59
2019-03-08T13:41:05.469Z,12.55
2019-03-08T13:43:34.726Z,12.52
2019-03-08T13:46:07.283Z,12.43
2019-03-08T13:48:37.137Z,12.53
2019-03-08T13:51:06.416Z,12.68
2019-03-08T13:53:38.604Z,12.69
2019-03-08T13:56:08.659Z,12.63
2019-03-08T14:01:28.775Z,12.19
2019-03-08T14:03:58.770Z,12.11
2019-03-08T14:06:28.696Z,11.84
2019-03-08T14:08:58.407Z,11.67
2019-03-08T14:11:27.750Z,11.64
2019-03-08T14:13:57.207Z,11.58
2019-03-08T14:16:32.092Z,11.82
2019-03-08T14:19:01.844Z,12.27
2019-03-08T14:21:32.362Z,12.55
2019-03-08T14:24:03.227Z,12.06
2019-03-08T14:26:32.718Z,12.24
2019-03-08T14:29:02.014Z,11.58
2019-03-08T14:31:54.232Z,12.09
2019-03-08T14:34:24.650Z,11.94
2019-03-08T14:36:54.364Z,12.27
2019-03-08T14:39:23.769Z,12.34
2019-03-08T14:42:10.925Z,12.23
2019-03-08T14:45:11.632Z,12.23
2019-03-08T14:47:46.510Z,12.59
2019-03-08T14:50:16.037Z,13.82
2019-03-08T14:52:45.916Z,14.81
2019-03-08T14:55:19.123Z,14.56
2019-03-08T14:57:48.016Z,14.30
2019-03-08T15:00:25.224Z,14.99
2019-03-08T15:02:53.622Z,14.86
2019-03-08T15:05:23.050Z,14.62
2019-03-08T15:07:52.339Z,15.26
2019-03-08T15:10:22.063Z,15.66
2019-03-08T15:12:53.098Z,13.99
2019-03-08T15:15:22.715Z,14.50
2019-03-08T15:17:53.516Z,14.31
2019-03-08T15:20:23.617Z,13.15
2019-03-08T15:22:52.899Z,13.05
2019-03-08T15:25:22.727Z,12.45
2019-03-08T15:27:52.155Z,12.47
2019-03-08T15:30:24.421Z,12.47
2019-03-08T15:32:54.157Z,12.67
2019-03-08T15:35:24.391Z,12.79
2019-03-08T15:37:53.857Z,12.71
2019-03-08T15:40:24.002Z,12.57
2019-03-08T15:42:53.414Z,12.58
2019-03-08T15:45:23.205Z,12.60
2019-03-08T15:47:53.418Z,12.29
2019-03-08T15:50:23.607Z,12.50
2019-03-08T15:52:53.825Z,12.69
2019-03-08T15:55:24.709Z,12.69
2019-03-08T15:57:54.736Z,12.99
2019-03-08T16:00:26.324Z,13.31
2019-03-08T16:02:56.658Z,13.42
2019-03-08T16:05:28.188Z,13.39
2019-03-08T16:08:01.671Z,13.66
2019-03-08T16:10:30.440Z,14.12
2019-03-08T16:13:02.703Z,14.21
2019-03-08T16:15:32.027Z,14.44
2019-03-08T16:18:03.419Z,14.79
2019-03-08T16:20:33.076Z,14.79
2019-03-08T16:23:06.665Z,14.79
2019-03-08T16:25:34.660Z,14.00
2019-03-08T16:28:07.066Z,14.03
2019-03-08T16:30:38.114Z,14.20
2019-03-08T16:33:22.145Z,14.14
2019-03-08T16:35:59.505Z,13.54
2019-03-08T16:38:37.994Z,12.92
2019-03-08T16:41:16.492Z,12.94
2019-03-08T16:44:14.219Z,12.73
2019-03-08T16:47:14.642Z,12.63
2019-03-08T16:50:03.975Z,12.55
2019-03-08T16:52:52.315Z,12.61
2019-03-08T16:55:53.971Z,12.22
2019-03-08T16:58:57.414Z,12.32
2019-03-08T17:01:49.416Z,12.21
2019-03-08T17:04:25.607Z,12.13
2019-03-08T17:08:07.129Z,12.04
2019-03-08T17:10:54.223Z,12.02
2019-03-08T17:13:42.959Z,12.07
2019-03-08T17:16:34.468Z,12.04
2019-03-08T17:19:23.287Z,12.01
2019-03-08T17:22:11.864Z,11.94
2019-03-08T17:25:00.793Z,11.90
2019-03-08T17:27:52.276Z,11.87
2019-03-08T17:30:58.266Z,11.85
2019-03-08T17:33:46.673Z,11.84
2019-03-08T17:36:34.071Z,11.79
2019-03-08T17:39:26.270Z,11.76
2019-03-08T17:42:04.734Z,11.83
2019-03-08T17:44:53.418Z,11.89
2019-03-08T17:47:29.314Z,11.76
2019-03-08T17:50:16.437Z,11.71
2019-03-08T17:53:03.306Z,11.66
2019-03-08T17:55:51.823Z,11.64
2019-03-08T17:58:47.955Z,11.71
2019-03-08T18:01:26.177Z,11.66
2019-03-08T18:04:03.468Z,11.66
2019-03-08T18:06:46.922Z,11.68
2019-03-08T18:09:24.032Z,11.61
2019-03-08T18:12:15.667Z,11.66
2019-03-08T18:15:04.922Z,11.67
2019-03-08T18:17:52.504Z,11.70
2019-03-08T18:21:01.043Z,11.73
2019-03-08T18:23:50.660Z,11.75
2019-03-08T18:26:39.868Z,11.62
2019-03-08T18:29:33.485Z,11.57
2019-03-08T18:32:17.087Z,11.58
2019-03-08T18:35:06.230Z,11.54
2019-03-08T18:37:58.647Z,11.50
2019-03-08T18:40:59.702Z,11.58
2019-03-08T18:43:50.077Z,11.53
2019-03-08T18:46:38.807Z,11.49
2019-03-08T18:49:18.029Z,11.46
2019-03-08T18:51:59.034Z,11.47
2019-03-08T18:54:39.288Z,11.47
2019-03-08T18:57:31.200Z,11.44
2019-03-08T19:00:35.202Z,11.46
2019-03-08T19:03:32.839Z,11.45
2019-03-08T19:06:13.319Z,11.39
2019-03-08T19:08:52.866Z,11.38
2019-03-08T19:11:39.994Z,11.37
2019-03-08T19:14:20.710Z,11.48
2019-03-08T19:17:01.757Z,11.41
2019-03-08T19:19:49.538Z,11.41
2019-03-08T19:22:40.953Z,11.43
2019-03-08T19:25:29.952Z,11.38
2019-03-08T19:28:21.768Z,11.39
2019-03-08T19:31:10.695Z,11.43
2019-03-08T19:33:47.928Z,11.43
2019-03-08T19:36:42.450Z,11.48
2019-03-08T19:39:34.747Z,11.47
2019-03-08T19:42:25.735Z,11.51
2019-03-08T19:45:16.044Z,11.59
2019-03-08T19:48:13.715Z,11.60
2019-03-08T19:50:53.884Z,11.47
2019-03-08T19:53:41.440Z,11.58
2019-03-08T19:56:22.591Z,11.56
2019-03-08T19:58:59.557Z,11.50
2019-03-08T20:01:41.499Z,11.39
2019-03-08T20:04:36.130Z,11.33
2019-03-08T20:07:28.964Z,11.39
2019-03-08T20:10:16.027Z,11.37
2019-03-08T20:12:59.647Z,11.32
2019-03-08T20:15:51.421Z,11.39
2019-03-08T20:18:41.740Z,11.45
2019-03-08T20:21:28.772Z,11.39
2019-03-08T20:24:18.239Z,11.45
2019-03-08T20:27:13.028Z,11.47
2019-03-08T20:30:08.118Z,11.48
2019-03-08T20:32:55.264Z,11.43
2019-03-08T20:35:56.185Z,11.40
2019-03-08T20:38:44.504Z,11.45
2019-03-08T20:41:25.479Z,11.43
2019-03-08T20:44:04.352Z,11.44
2019-03-08T20:46:48.306Z,11.44
2019-03-08T20:49:18.352Z,11.40
2019-03-08T20:51:48.850Z,11.39
2019-03-08T20:54:18.843Z,11.38
2019-03-08T20:56:48.795Z,11.43
2019-03-08T20:59:18.934Z,11.37
2019-03-08T21:01:48.832Z,11.41
2019-03-08T21:04:18.717Z,11.44
2019-03-08T21:06:51.768Z,11.44
2019-03-08T21:09:21.884Z,11.37
2019-03-08T21:11:53.076Z,11.41
2019-03-08T21:14:24.343Z,11.33
2019-03-08T21:16:56.048Z,11.39
2019-03-08T21:19:48.015Z,11.21
2019-03-08T21:22:37.205Z,11.26
2019-03-08T21:25:08.451Z,11.28
2019-03-08T21:27:40.704Z,11.15
2019-03-08T21:30:13.518Z,11.18
2019-03-08T21:32:43.234Z,11.22
2019-03-08T21:35:16.255Z,11.21
2019-03-08T21:37:46.472Z,11.13
2019-03-08T21:40:17.613Z,11.17
2019-03-08T21:42:47.170Z,11.04
2019-03-08T21:45:17.091Z,11.10
2019-03-08T21:47:50.248Z,11.07
2019-03-08T21:50:19.938Z,10.88
2019-03-08T21:52:50.808Z,10.95
2019-03-08T21:55:20.890Z,11.03
2019-03-08T21:57:50.475Z,11.04
2019-03-08T22:00:21.515Z,10.96
2019-03-08T22:02:51.441Z,11.01
2019-03-08T22:05:26.873Z,10.97
2019-03-08T22:07:56.548Z,11.00
2019-03-08T22:10:46.400Z,11.05
2019-03-08T22:13:16.592Z,11.10
2019-03-08T22:15:46.189Z,11.11
2019-03-08T22:18:15.970Z,11.08
2019-03-08T22:20:46.043Z,11.08
2019-03-08T22:23:15.359Z,11.12
2019-03-08T22:25:44.727Z,11.01
2019-03-08T22:28:14.544Z,11.04
2019-03-08T22:30:43.825Z,11.07
2019-03-08T22:33:13.315Z,11.05
2019-03-08T22:35:45.018Z,11.00
2019-03-08T22:38:14.361Z,11.06
2019-03-08T22:40:43.690Z,11.08
2019-03-08T22:43:13.363Z,11.09
2019-03-08T22:45:42.656Z,11.06
2019-03-08T22:48:12.275Z,10.85
2019-03-08T22:50:42.414Z,10.90
2019-03-08T22:53:11.744Z,10.92
2019-03-08T22:55:44.184Z,10.84
2019-03-08T22:58:13.475Z,10.94
2019-03-08T23:01:09.306Z,10.83
2019-03-08T23:03:38.717Z,10.80
2019-03-08T23:06:08.555Z,10.84
2019-03-08T23:08:37.876Z,10.80
2019-03-08T23:11:07.549Z,10.87
2019-03-08T23:13:37.271Z,10.86
2019-03-08T23:16:06.661Z,10.72
2019-03-08T23:18:35.985Z,10.72
2019-03-08T23:21:05.664Z,10.76
2019-03-08T23:23:35.105Z,10.74
2019-03-08T23:26:07.387Z,10.61
2019-03-08T23:28:45.258Z,10.68
2019-03-08T23:31:30.728Z,10.70
2019-03-08T23:34:00.429Z,10.68
2019-03-08T23:36:29.937Z,10.63
2019-03-08T23:38:59.175Z,10.64
2019-03-08T23:41:28.896Z,10.67
2019-03-08T23:43:58.290Z,10.67
2019-03-08T23:46:27.999Z,10.66
2019-03-08T23:48:57.770Z,10.60
2019-03-08T23:51:27.159Z,10.61
2019-03-08T23:53:57.386Z,10.62
2019-03-08T23:56:27.253Z,10.65
2019-03-08T23:58:56.541Z,10.70
